Time;durP1;ratioP1;P1;durP2;ratioP2;P2;SDS_P1;SDS_P2;PMS_P1;PMS_P2;Temp;Humidity;BMP_temperature;BMP_pressure;BME280_temperature;BME280_humidity;BME280_pressure;Samples;Min_cycle;Max_cycle;Signal;HPM_P1;HPM_P2
2023/06/28 00:01:10;;;;;;;4.80;1.70;;;14.30;99.90;;;;;;5021778;28;20685;-41
2023/06/28 00:03:38;;;;;;;4.07;1.60;;;14.30;99.90;;;;;;5021172;28;20257;-42
2023/06/28 00:06:05;;;;;;;2.30;1.77;;;14.20;99.90;;;;;;5002178;28;20216;-43
2023/06/28 00:08:32;;;;;;;4.57;2.03;;;14.20;99.90;;;;;;5021499;28;20192;-42
2023/06/28 00:10:59;;;;;;;3.90;1.80;;;14.10;99.90;;;;;;5019792;28;20251;-43
2023/06/28 00:13:26;;;;;;;5.90;2.00;;;14.10;99.90;;;;;;5015097;28;20735;-43
2023/06/28 00:15:52;;;;;;;4.77;1.70;;;14.10;99.90;;;;;;5022373;28;20200;-44
2023/06/28 00:18:19;;;;;;;5.73;2.37;;;14.10;99.90;;;;;;5014083;28;20227;-42
2023/06/28 00:20:47;;;;;;;3.47;1.83;;;14.10;99.90;;;;;;5006050;28;21001;-43
2023/06/28 00:23:14;;;;;;;2.53;1.60;;;14.10;99.90;;;;;;5018516;28;20196;-44
2023/06/28 00:25:41;;;;;;;3.57;1.73;;;14.10;99.90;;;;;;5017457;28;20239;-43
2023/06/28 00:28:08;;;;;;;3.20;1.70;;;14.10;99.90;;;;;;5009528;28;20200;-43
2023/06/28 00:30:35;;;;;;;5.57;2.10;;;14.00;99.90;;;;;;5013246;28;20199;-44
2023/06/28 00:33:02;;;;;;;3.70;1.30;;;14.10;99.90;;;;;;5023888;28;20251;-43
2023/06/28 00:35:29;;;;;;;2.33;1.50;;;14.00;99.90;;;;;;5002532;28;20215;-45
2023/06/28 00:37:57;;;;;;;4.67;1.80;;;14.00;99.90;;;;;;5024983;28;20250;-44
2023/06/28 00:40:25;;;;;;;3.70;1.83;;;14.00;99.90;;;;;;5013712;28;20586;-45
2023/06/28 00:42:52;;;;;;;3.87;1.87;;;14.00;99.90;;;;;;5006870;28;20406;-47
2023/06/28 00:45:19;;;;;;;4.60;1.50;;;14.00;99.90;;;;;;5018270;28;20242;-42
2023/06/28 00:47:46;;;;;;;6.27;1.90;;;14.00;99.90;;;;;;5023843;28;20196;-44
2023/06/28 00:50:14;;;;;;;4.43;1.70;;;14.00;99.90;;;;;;5023588;28;20204;-42
2023/06/28 00:52:41;;;;;;;8.37;1.83;;;14.00;99.90;;;;;;4993219;28;20285;-43
2023/06/28 00:55:10;;;;;;;6.57;2.07;;;13.90;99.90;;;;;;5021893;28;20689;-41
2023/06/28 00:57:38;;;;;;;1.97;1.60;;;13.90;99.90;;;;;;5008802;28;20204;-44
2023/06/28 01:00:11;;;;;;;3.33;1.77;;;13.80;99.90;;;;;;5022558;28;20204;-44
2023/06/28 01:02:41;;;;;;;5.07;1.90;;;13.80;99.90;;;;;;5021495;28;20212;-49
2023/06/28 01:05:09;;;;;;;5.43;1.77;;;13.70;99.90;;;;;;5016992;28;20196;-45
2023/06/28 01:07:37;;;;;;;5.33;2.23;;;13.70;99.90;;;;;;5002860;28;20967;-42
2023/06/28 01:10:06;;;;;;;5.90;1.77;;;13.70;99.90;;;;;;5024315;28;20200;-47
2023/06/28 01:12:35;;;;;;;3.00;2.00;;;13.70;99.90;;;;;;5013234;28;20255;-42
2023/06/28 01:15:03;;;;;;;3.37;2.23;;;13.70;99.90;;;;;;5017273;28;20231;-45
2023/06/28 01:17:30;;;;;;;3.80;1.80;;;13.60;99.90;;;;;;5013445;28;20532;-45
2023/06/28 01:19:57;;;;;;;2.90;1.70;;;13.60;99.90;;;;;;5023018;28;20246;-45
2023/06/28 01:22:26;;;;;;;3.20;1.90;;;13.50;99.90;;;;;;5002786;28;20282;-41
2023/06/28 01:24:56;;;;;;;4.13;1.80;;;13.60;99.90;;;;;;5024037;28;20199;-42
2023/06/28 01:27:24;;;;;;;4.13;2.00;;;13.60;99.90;;;;;;5014158;28;20299;-42
2023/06/28 01:29:56;;;;;;;2.80;1.90;;;13.50;99.90;;;;;;5004326;28;20196;-44
2023/06/28 01:32:24;;;;;;;3.30;2.00;;;13.50;99.90;;;;;;5019192;28;20595;-41
2023/06/28 01:34:50;;;;;;;6.47;2.07;;;13.50;99.90;;;;;;5022955;28;20196;-44
2023/06/28 01:37:18;;;;;;;2.07;1.87;;;13.50;99.90;;;;;;5009335;28;20246;-42
2023/06/28 01:39:46;;;;;;;2.57;1.93;;;13.50;99.90;;;;;;5013122;28;20375;-42
2023/06/28 01:42:15;;;;;;;4.33;1.93;;;13.50;99.90;;;;;;5016755;28;20243;-42
2023/06/28 01:44:42;;;;;;;2.73;2.30;;;13.50;99.90;;;;;;5010547;28;20199;-44
2023/06/28 01:47:08;;;;;;;4.30;1.90;;;13.50;99.90;;;;;;5023650;28;20196;-45
2023/06/28 01:49:36;;;;;;;3.17;2.20;;;13.40;99.90;;;;;;5005560;28;20189;-45
2023/06/28 01:52:04;;;;;;;5.30;2.23;;;13.40;99.90;;;;;;5015398;28;20227;-44
2023/06/28 01:54:33;;;;;;;3.77;2.07;;;13.40;99.90;;;;;;5000180;28;20356;-42
2023/06/28 01:57:00;;;;;;;4.90;2.00;;;13.50;99.90;;;;;;5019710;28;20231;-42
2023/06/28 01:59:30;;;;;;;3.50;1.90;;;13.50;99.90;;;;;;5006656;28;20288;-44
2023/06/28 02:01:57;;;;;;;5.17;2.20;;;13.50;99.90;;;;;;5021754;28;20278;-43
2023/06/28 02:04:25;;;;;;;5.80;2.20;;;13.40;99.90;;;;;;5013184;28;20230;-43
2023/06/28 02:06:53;;;;;;;2.57;1.90;;;13.40;99.90;;;;;;5021113;28;20188;-43
2023/06/28 02:09:20;;;;;;;3.80;2.43;;;13.40;99.90;;;;;;5007901;28;20207;-43
2023/06/28 02:11:47;;;;;;;4.80;2.50;;;13.40;99.90;;;;;;5016847;28;20625;-42
2023/06/28 02:14:14;;;;;;;2.90;1.83;;;13.40;99.90;;;;;;5014353;28;20254;-43
2023/06/28 02:16:42;;;;;;;4.33;2.10;;;13.40;99.90;;;;;;5009796;28;20942;-42
2023/06/28 02:19:12;;;;;;;5.40;2.13;;;13.40;99.90;;;;;;5022939;28;20275;-45
2023/06/28 02:21:41;;;;;;;2.90;1.90;;;13.40;99.90;;;;;;5019422;28;20204;-45
2023/06/28 02:24:09;;;;;;;2.83;2.20;;;13.50;99.90;;;;;;5022717;28;20561;-41
2023/06/28 02:26:36;;;;;;;3.20;2.40;;;13.50;99.90;;;;;;5003466;28;20195;-45
2023/06/28 02:29:03;;;;;;;4.30;2.57;;;13.40;99.90;;;;;;5010102;28;20215;-45
2023/06/28 02:31:29;;;;;;;5.30;2.60;;;13.40;99.90;;;;;;5013028;28;20227;-46
2023/06/28 02:33:58;;;;;;;9.37;2.73;;;13.40;99.90;;;;;;5021730;28;20331;-47
2023/06/28 02:36:24;;;;;;;4.27;2.87;;;13.40;99.90;;;;;;5016872;28;20212;-42
2023/06/28 02:38:51;;;;;;;6.07;3.40;;;13.40;99.90;;;;;;5020609;28;20204;-43
2023/06/28 02:41:18;;;;;;;6.90;3.10;;;13.40;99.90;;;;;;4997592;28;20694;-41
2023/06/28 02:43:45;;;;;;;3.63;2.40;;;13.40;99.90;;;;;;5019741;28;20184;-43
2023/06/28 02:46:12;;;;;;;4.30;2.60;;;13.40;99.90;;;;;;5009990;28;20223;-43
2023/06/28 02:48:39;;;;;;;3.83;2.10;;;13.40;99.90;;;;;;5019253;28;20188;-44
2023/06/28 02:51:07;;;;;;;3.70;2.50;;;13.40;99.90;;;;;;5020735;28;20223;-44
2023/06/28 02:53:34;;;;;;;6.90;3.10;;;13.40;99.90;;;;;;5013157;28;20302;-44
2023/06/28 02:56:01;;;;;;;6.13;3.00;;;13.40;99.90;;;;;;5002868;28;20744;-42
2023/06/28 02:58:46;;;;;;;5.40;2.57;;;13.40;99.90;;;;;;5019882;28;20191;-43
2023/06/28 03:01:14;;;;;;;5.23;2.77;;;13.40;99.90;;;;;;4999167;28;20227;-46
2023/06/28 03:03:41;;;;;;;8.77;3.50;;;13.40;99.90;;;;;;5017658;28;20196;-42
2023/06/28 03:06:09;;;;;;;4.77;2.73;;;13.40;99.90;;;;;;5016069;28;20200;-48
2023/06/28 03:08:36;;;;;;;3.57;2.60;;;13.40;99.90;;;;;;5022281;28;20207;-48
2023/06/28 03:11:03;;;;;;;7.60;3.07;;;13.40;99.90;;;;;;5001287;28;20308;-46
2023/06/28 03:13:30;;;;;;;8.07;3.40;;;13.40;99.90;;;;;;5019467;28;20866;-41
2023/06/28 03:15:57;;;;;;;5.63;2.80;;;13.40;99.90;;;;;;5008821;28;20207;-45
2023/06/28 03:18:24;;;;;;;10.23;3.77;;;13.40;99.90;;;;;;5011006;28;20211;-42
2023/06/28 03:20:51;;;;;;;4.93;3.37;;;13.40;99.90;;;;;;5022445;28;20220;-43
2023/06/28 03:23:19;;;;;;;5.13;3.20;;;13.50;99.90;;;;;;5018924;28;20192;-44
2023/06/28 03:25:46;;;;;;;5.57;3.60;;;13.50;99.90;;;;;;5001750;28;20291;-50
2023/06/28 03:28:13;;;;;;;9.00;3.20;;;13.50;99.90;;;;;;5011700;28;20188;-43
2023/06/28 03:30:40;;;;;;;3.53;2.47;;;13.50;99.90;;;;;;5014827;28;20197;-42
2023/06/28 03:33:07;;;;;;;4.50;3.30;;;13.50;99.90;;;;;;5003020;28;20226;-44
2023/06/28 03:35:33;;;;;;;8.67;3.37;;;13.50;99.90;;;;;;5017262;28;20196;-42
2023/06/28 03:38:00;;;;;;;5.70;3.27;;;13.50;99.90;;;;;;5022140;28;20223;-44
2023/06/28 03:40:29;;;;;;;6.93;3.50;;;13.60;99.90;;;;;;5017442;28;20904;-42
2023/06/28 03:42:56;;;;;;;5.83;3.20;;;13.50;99.90;;;;;;5002199;28;20294;-46
2023/06/28 03:45:23;;;;;;;4.63;3.00;;;13.50;99.90;;;;;;5033742;28;20534;-42
2023/06/28 03:47:50;;;;;;;5.43;3.03;;;13.50;99.90;;;;;;5017065;28;20198;-44
2023/06/28 03:50:17;;;;;;;7.03;3.57;;;13.60;99.90;;;;;;5014179;28;20246;-42
2023/06/28 03:52:44;;;;;;;7.87;3.80;;;13.60;99.90;;;;;;5015876;28;20219;-45
2023/06/28 03:55:13;;;;;;;4.87;3.30;;;13.60;99.90;;;;;;5020845;28;20188;-42
2023/06/28 03:57:41;;;;;;;7.10;3.27;;;13.60;99.90;;;;;;5003769;28;20219;-48
2023/06/28 04:00:10;;;;;;;5.80;3.00;;;13.60;99.90;;;;;;5021446;28;20563;-49
2023/06/28 04:02:40;;;;;;;3.77;2.90;;;13.60;99.90;;;;;;5020999;28;20218;-45
2023/06/28 04:05:08;;;;;;;7.70;4.10;;;13.70;99.90;;;;;;5011487;28;20200;-46
2023/06/28 04:07:35;;;;;;;6.60;3.23;;;13.70;99.90;;;;;;5015766;28;20208;-42
2023/06/28 04:10:03;;;;;;;8.50;3.10;;;13.70;99.90;;;;;;5023116;28;20231;-44
2023/06/28 04:12:30;;;;;;;7.10;3.60;;;13.70;99.90;;;;;;5024956;28;20303;-42
2023/06/28 04:15:00;;;;;;;9.13;3.17;;;13.80;99.90;;;;;;5001586;28;20207;-45
2023/06/28 04:17:27;;;;;;;13.70;3.63;;;13.80;99.90;;;;;;5018086;28;20200;-41
2023/06/28 04:19:54;;;;;;;6.13;3.43;;;13.80;99.90;;;;;;5013918;28;20202;-45
2023/06/28 04:22:21;;;;;;;4.87;3.47;;;13.80;99.90;;;;;;5012222;28;20319;-47
2023/06/28 04:24:48;;;;;;;6.30;3.17;;;13.90;99.90;;;;;;5022348;28;20940;-43
2023/06/28 04:27:14;;;;;;;5.73;3.43;;;13.90;99.90;;;;;;5015582;28;20223;-44
2023/06/28 04:29:41;;;;;;;5.03;3.27;;;13.90;99.90;;;;;;4999424;28;20291;-42
2023/06/28 04:32:22;;;;;;;8.10;3.60;;;14.00;99.90;;;;;;5024696;28;20219;-44
2023/06/28 04:34:49;;;;;;;8.53;3.67;;;14.00;99.90;;;;;;5022507;28;20493;-43
2023/06/28 04:37:18;;;;;;;8.43;4.17;;;14.00;99.90;;;;;;5012277;28;20227;-42
2023/06/28 04:39:44;;;;;;;12.43;4.23;;;14.10;99.90;;;;;;5016199;28;20199;-45
2023/06/28 04:42:14;;;;;;;8.77;3.53;;;14.10;99.90;;;;;;5017709;28;20954;-43
2023/06/28 04:44:41;;;;;;;10.60;3.87;;;14.20;99.90;;;;;;5001996;28;20282;-45
2023/06/28 04:47:15;;;;;;;5.37;3.40;;;14.20;99.90;;;;;;5024401;28;20235;-43
2023/06/28 04:49:43;;;;;;;7.20;3.73;;;14.30;99.90;;;;;;5020758;28;20204;-48
2023/06/28 04:52:11;;;;;;;4.90;3.83;;;14.30;99.90;;;;;;5010533;28;20258;-48
2023/06/28 04:54:37;;;;;;;5.97;3.30;;;14.40;99.90;;;;;;5021274;28;20211;-44
2023/06/28 04:57:05;;;;;;;7.03;3.50;;;14.40;99.90;;;;;;5018576;28;20204;-41
2023/06/28 04:59:32;;;;;;;8.63;3.53;;;14.40;99.90;;;;;;5022083;28;20192;-45
2023/06/28 05:01:58;;;;;;;7.03;3.43;;;14.50;99.90;;;;;;5003012;28;20315;-43
2023/06/28 05:04:26;;;;;;;6.40;3.63;;;14.60;99.90;;;;;;5017208;28;20188;-46
2023/06/28 05:06:53;;;;;;;7.67;4.07;;;14.60;99.90;;;;;;5022197;28;20193;-43
2023/06/28 05:09:22;;;;;;;8.83;3.13;;;14.70;99.90;;;;;;5016897;28;20223;-46
2023/06/28 05:11:49;;;;;;;8.50;3.90;;;14.70;99.90;;;;;;5013936;28;20301;-41
2023/06/28 05:14:16;;;;;;;10.90;3.90;;;14.80;99.90;;;;;;5022176;28;21033;-44
2023/06/28 05:16:42;;;;;;;9.47;3.67;;;14.90;99.90;;;;;;4995528;28;20450;-43
2023/06/28 05:19:09;;;;;;;6.13;3.40;;;14.90;99.90;;;;;;5023776;28;20192;-42
2023/06/28 05:21:37;;;;;;;14.43;3.70;;;15.00;99.90;;;;;;5020411;28;20243;-45
2023/06/28 05:24:04;;;;;;;9.70;3.33;;;15.10;99.90;;;;;;5017775;28;20293;-41
2023/06/28 05:26:31;;;;;;;7.50;3.30;;;15.10;99.90;;;;;;5019078;28;20196;-47
2023/06/28 05:28:58;;;;;;;8.03;3.77;;;15.20;99.90;;;;;;5013119;28;20212;-42
2023/06/28 05:31:25;;;;;;;10.67;4.07;;;15.20;99.90;;;;;;5014670;28;20224;-46
2023/06/28 05:33:51;;;;;;;4.87;3.27;;;15.30;99.90;;;;;;5009998;28;20231;-44
2023/06/28 05:36:21;;;;;;;8.77;3.30;;;15.40;99.90;;;;;;5023697;28;20246;-44
2023/06/28 05:38:50;;;;;;;7.07;2.87;;;15.40;99.90;;;;;;5017690;28;20804;-42
2023/06/28 05:41:17;;;;;;;6.07;2.60;;;15.50;99.90;;;;;;5014054;28;20290;-41
2023/06/28 05:43:46;;;;;;;7.83;3.60;;;15.50;99.90;;;;;;5013574;28;20394;-42
2023/06/28 05:46:13;;;;;;;6.13;2.80;;;15.60;99.90;;;;;;5023918;28;20200;-42
2023/06/28 05:48:40;;;;;;;9.30;2.87;;;15.60;99.90;;;;;;4999008;28;20898;-43
2023/06/28 05:51:09;;;;;;;10.40;3.00;;;15.70;99.90;;;;;;5018559;28;20223;-43
2023/06/28 05:53:37;;;;;;;5.70;2.87;;;15.70;99.90;;;;;;5018516;28;20208;-43
2023/06/28 05:56:06;;;;;;;7.80;3.00;;;15.80;99.90;;;;;;5016509;28;20212;-43
2023/06/28 05:58:33;;;;;;;8.33;3.10;;;15.80;99.90;;;;;;5015382;28;20199;-46
2023/06/28 06:01:00;;;;;;;4.57;2.50;;;15.90;99.90;;;;;;5020955;28;20284;-44
2023/06/28 06:03:27;;;;;;;8.27;2.87;;;16.00;99.90;;;;;;4995503;28;20786;-43
2023/06/28 06:05:54;;;;;;;6.00;2.70;;;16.00;99.90;;;;;;5020631;28;20250;-43
2023/06/28 06:08:22;;;;;;;7.57;2.70;;;16.10;99.90;;;;;;5022478;28;20204;-45
2023/06/28 06:10:48;;;;;;;4.77;2.57;;;16.20;99.90;;;;;;5013783;28;20199;-45
2023/06/28 06:13:17;;;;;;;4.27;2.63;;;16.30;99.90;;;;;;5023512;28;20216;-45
2023/06/28 06:15:43;;;;;;;5.10;2.37;;;16.40;99.90;;;;;;5000928;28;20797;-43
2023/06/28 06:18:10;;;;;;;8.83;2.87;;;16.40;99.90;;;;;;5001686;28;20288;-43
2023/06/28 06:20:37;;;;;;;7.73;2.50;;;16.50;99.90;;;;;;5018099;28;20223;-42
2023/06/28 06:23:04;;;;;;;5.27;2.33;;;16.50;99.90;;;;;;5022870;28;20607;-45
2023/06/28 06:25:31;;;;;;;6.50;2.57;;;16.60;99.90;;;;;;5016486;28;20220;-44
2023/06/28 06:27:57;;;;;;;10.57;2.60;;;16.60;99.90;;;;;;5006348;28;20203;-40
2023/06/28 06:30:26;;;;;;;11.30;2.37;;;16.70;99.90;;;;;;5012927;28;20988;-43
2023/06/28 06:32:53;;;;;;;7.47;2.30;;;16.70;99.90;;;;;;5022445;28;20251;-47
2023/06/28 06:35:19;;;;;;;5.97;2.20;;;16.80;99.90;;;;;;4998829;28;20682;-43
2023/06/28 06:37:46;;;;;;;7.13;2.37;;;16.80;99.90;;;;;;5021540;28;20273;-43
2023/06/28 06:40:13;;;;;;;2.73;1.77;;;16.90;99.90;;;;;;5016083;28;20655;-44
2023/06/28 06:42:40;;;;;;;4.00;2.30;;;16.90;99.90;;;;;;5015230;28;20262;-41
2023/06/28 06:45:08;;;;;;;9.87;1.93;;;17.00;99.90;;;;;;5020361;28;20641;-45
2023/06/28 06:47:38;;;;;;;2.90;1.60;;;17.00;99.90;;;;;;5013137;28;20200;-42
2023/06/28 06:50:06;;;;;;;4.63;2.10;;;17.10;99.90;;;;;;4998789;28;20299;-44
2023/06/28 06:52:34;;;;;;;5.83;1.60;;;17.10;99.90;;;;;;5015869;28;20231;-42
2023/06/28 06:55:00;;;;;;;4.50;1.97;;;17.20;99.90;;;;;;5023064;28;20548;-44
2023/06/28 06:57:27;;;;;;;4.97;1.63;;;17.30;99.90;;;;;;5011946;28;20254;-42
2023/06/28 06:59:54;;;;;;;7.63;1.50;;;17.30;99.90;;;;;;5023145;28;20192;-45
2023/06/28 07:02:21;;;;;;;3.90;2.17;;;17.50;99.90;;;;;;5009012;28;20247;-44
2023/06/28 07:04:50;;;;;;;8.67;2.17;;;17.50;99.90;;;;;;4998206;28;20204;-45
2023/06/28 07:07:17;;;;;;;7.97;2.73;;;17.50;99.90;;;;;;5019429;28;20200;-44
2023/06/28 07:09:44;;;;;;;6.60;1.73;;;17.60;99.90;;;;;;5021512;28;20208;-43
2023/06/28 07:12:11;;;;;;;11.87;2.03;;;17.60;99.90;;;;;;5019020;28;20290;-47
2023/06/28 07:14:37;;;;;;;5.77;1.93;;;17.60;99.90;;;;;;5017690;28;20274;-46
2023/06/28 07:17:05;;;;;;;8.00;1.83;;;17.70;99.90;;;;;;5024087;28;20201;-46
2023/06/28 07:19:32;;;;;;;6.73;1.60;;;17.80;99.90;;;;;;4995734;28;20204;-41
2023/06/28 07:22:00;;;;;;;6.27;1.67;;;17.80;99.90;;;;;;5025452;28;20244;-41
2023/06/28 07:24:26;;;;;;;5.73;1.53;;;17.90;99.90;;;;;;5023015;28;20263;-44
2023/06/28 07:26:53;;;;;;;6.50;1.53;;;17.90;99.90;;;;;;5020503;28;20187;-44
2023/06/28 07:29:20;;;;;;;3.33;1.63;;;18.00;99.90;;;;;;5014990;28;20289;-46
2023/06/28 07:31:47;;;;;;;6.93;1.50;;;18.10;99.90;;;;;;5026548;28;20250;-42
2023/06/28 07:34:14;;;;;;;3.60;1.30;;;18.10;99.90;;;;;;5002497;28;20211;-44
2023/06/28 07:36:41;;;;;;;4.33;1.53;;;18.20;99.90;;;;;;5020554;28;20226;-42
2023/06/28 07:39:09;;;;;;;3.33;1.60;;;18.20;99.90;;;;;;5018916;28;20897;-45
2023/06/28 07:41:36;;;;;;;6.37;2.00;;;18.30;99.90;;;;;;5024505;28;20207;-42
2023/06/28 07:44:03;;;;;;;5.63;1.77;;;18.30;99.90;;;;;;5019291;28;20208;-45
2023/06/28 07:46:31;;;;;;;5.07;1.60;;;18.40;99.90;;;;;;5022922;28;20199;-44
2023/06/28 07:48:59;;;;;;;9.20;2.13;;;18.40;99.90;;;;;;5019386;28;20215;-45
2023/06/28 07:51:26;;;;;;;5.20;1.50;;;18.40;99.90;;;;;;4996050;28;20596;-42
2023/06/28 07:53:53;;;;;;;4.67;1.67;;;18.30;99.90;;;;;;5025229;28;20220;-45
2023/06/28 07:56:22;;;;;;;3.33;1.20;;;18.30;99.90;;;;;;5022230;28;20258;-44
2023/06/28 07:58:49;;;;;;;2.90;1.57;;;18.30;99.90;;;;;;5017827;28;20204;-46
2023/06/28 08:01:17;;;;;;;3.53;1.30;;;18.50;99.90;;;;;;5022521;28;20697;-42
2023/06/28 08:03:44;;;;;;;5.43;1.57;;;18.70;99.90;;;;;;5019844;28;20196;-41
2023/06/28 08:06:11;;;;;;;7.57;2.00;;;18.90;99.90;;;;;;4996757;28;20298;-45
2023/06/28 08:08:38;;;;;;;2.97;1.53;;;19.00;99.90;;;;;;5024112;28;20200;-43
2023/06/28 08:11:05;;;;;;;3.87;1.60;;;19.10;99.90;;;;;;5024885;28;20223;-43
2023/06/28 08:13:33;;;;;;;3.47;1.50;;;19.00;99.90;;;;;;5021205;28;20220;-42
2023/06/28 08:16:00;;;;;;;5.03;1.90;;;18.90;99.90;;;;;;5015129;28;20274;-41
2023/06/28 08:18:26;;;;;;;3.63;1.40;;;18.90;99.90;;;;;;5021954;28;20199;-42
2023/06/28 08:20:53;;;;;;;2.40;1.40;;;18.90;99.90;;;;;;5017690;28;20227;-41
2023/06/28 08:23:21;;;;;;;4.33;1.70;;;18.90;99.90;;;;;;5000562;28;20628;-45
2023/06/28 08:25:48;;;;;;;7.90;1.80;;;19.00;99.90;;;;;;5022451;28;20200;-48
2023/06/28 08:28:15;;;;;;;5.80;2.00;;;19.20;99.90;;;;;;5018652;28;20200;-45
2023/06/28 08:30:43;;;;;;;3.13;1.73;;;19.10;99.90;;;;;;5018152;28;20216;-41
2023/06/28 08:33:10;;;;;;;3.13;1.57;;;19.10;99.90;;;;;;5023557;28;20199;-43
2023/06/28 08:35:37;;;;;;;5.00;2.03;;;19.10;99.90;;;;;;5016751;28;20278;-40
2023/06/28 08:38:04;;;;;;;4.80;1.60;;;19.10;99.90;;;;;;5000987;28;21038;-41
2023/06/28 08:40:31;;;;;;;4.73;1.90;;;19.30;99.90;;;;;;5019851;28;20192;-41
2023/06/28 08:43:01;;;;;;;6.17;1.70;;;19.50;99.90;;;;;;5023818;28;20212;-42
2023/06/28 08:45:31;;;;;;;5.23;1.93;;;19.60;99.90;;;;;;5021895;28;20238;-46
2023/06/28 08:47:59;;;;;;;3.80;1.90;;;19.50;99.90;;;;;;5018154;28;20216;-46
2023/06/28 08:50:27;;;;;;;2.73;1.40;;;19.50;99.90;;;;;;5009709;28;20260;-44
2023/06/28 08:52:54;;;;;;;3.33;1.60;;;19.40;99.90;;;;;;5023374;28;20639;-42
2023/06/28 08:55:22;;;;;;;5.43;2.30;;;19.50;99.90;;;;;;5001434;28;20231;-41
2023/06/28 08:57:49;;;;;;;4.33;1.80;;;19.50;99.90;;;;;;5024967;28;20196;-44
2023/06/28 09:00:16;;;;;;;4.97;1.97;;;19.80;99.90;;;;;;5022070;28;20405;-43
2023/06/28 09:02:44;;;;;;;4.23;1.90;;;20.00;99.90;;;;;;5011538;28;20220;-42
2023/06/28 09:05:12;;;;;;;7.40;1.87;;;20.10;99.90;;;;;;5022330;28;20256;-41
2023/06/28 09:07:41;;;;;;;1.67;1.30;;;20.10;99.90;;;;;;5017380;28;20954;-43
2023/06/28 09:10:10;;;;;;;3.20;1.70;;;20.30;99.90;;;;;;5003058;28;20215;-46
2023/06/28 09:12:38;;;;;;;3.83;1.60;;;20.40;99.90;;;;;;5022094;28;20261;-45
2023/06/28 09:15:06;;;;;;;4.20;2.23;;;20.20;99.90;;;;;;5012031;28;20207;-45
2023/06/28 09:17:33;;;;;;;3.57;2.00;;;20.20;99.90;;;;;;5012950;28;20239;-38
2023/06/28 09:20:17;;;;;;;7.00;2.00;;;20.10;99.90;;;;;;5017713;28;20266;-40
2023/06/28 09:22:44;;;;;;;5.83;1.70;;;20.00;99.90;;;;;;5016733;28;20632;-41
2023/06/28 09:25:11;;;;;;;5.87;1.93;;;20.00;99.90;;;;;;5001039;28;20299;-44
2023/06/28 09:27:37;;;;;;;5.53;2.00;;;20.10;99.90;;;;;;5017348;28;20191;-46
2023/06/28 09:30:23;;;;;;;4.17;1.70;;;20.30;99.90;;;;;;5019119;28;20266;-41
2023/06/28 09:32:51;;;;;;;5.47;2.00;;;20.30;99.90;;;;;;5024366;28;20278;-39
2023/06/28 09:35:20;;;;;;;3.83;1.60;;;20.30;99.90;;;;;;5012880;28;20696;-41
2023/06/28 09:37:51;;;;;;;4.37;1.63;;;20.30;99.90;;;;;;5013845;28;20732;-40
2023/06/28 09:40:18;;;;;;;2.83;1.50;;;20.50;99.90;;;;;;5001069;28;20224;-42
2023/06/28 09:42:46;;;;;;;4.27;1.53;;;20.70;99.90;;;;;;5013797;28;20238;-42
2023/06/28 09:45:27;;;;;;;4.17;2.10;;;20.90;99.90;;;;;;5020034;28;20196;-39
2023/06/28 09:47:58;;;;;;;6.80;2.10;;;21.00;99.90;;;;;;5018625;28;20665;-42
2023/06/28 09:50:40;;;;;;;2.97;1.93;;;21.00;99.90;;;;;;5006231;28;20204;-40
2023/06/28 09:53:11;;;;;;;4.40;2.23;;;20.80;99.90;;;;;;5013385;28;20269;-41
2023/06/28 09:55:38;;;;;;;8.03;2.20;;;20.70;99.90;;;;;;5023146;28;20251;-41
2023/06/28 09:58:08;;;;;;;4.23;2.20;;;20.60;99.90;;;;;;5001814;28;20203;-41
2023/06/28 10:00:37;;;;;;;3.20;1.90;;;20.50;99.90;;;;;;5022999;28;20220;-41
2023/06/28 10:03:06;;;;;;;2.57;2.03;;;20.50;99.90;;;;;;5012816;28;20253;-40
2023/06/28 10:05:34;;;;;;;5.77;2.60;;;20.40;99.90;;;;;;5016672;28;20196;-40
2023/06/28 10:08:04;;;;;;;5.10;1.93;;;20.40;99.90;;;;;;5016911;28;20884;-42
2023/06/28 10:10:34;;;;;;;3.37;2.10;;;20.40;99.90;;;;;;5016981;28;20208;-42
2023/06/28 10:13:03;;;;;;;3.30;1.83;;;20.40;99.90;;;;;;4997790;28;20206;-46
2023/06/28 10:15:35;;;;;;;4.80;2.00;;;20.50;99.90;;;;;;5019343;28;20305;-44
2023/06/28 10:18:02;;;;;;;3.30;1.90;;;20.50;99.90;;;;;;5019492;28;20200;-42
2023/06/28 10:20:29;;;;;;;4.20;1.80;;;20.70;99.90;;;;;;5016734;28;20232;-44
2023/06/28 10:22:58;;;;;;;4.28;2.22;;;20.90;99.90;;;;;;5019956;28;20220;-46
2023/06/28 10:25:27;;;;;;;3.80;2.10;;;21.00;99.90;;;;;;5012979;28;20228;-42
2023/06/28 10:27:55;;;;;;;4.67;2.07;;;20.90;99.90;;;;;;4997458;28;20203;-49
2023/06/28 10:30:23;;;;;;;3.07;2.17;;;20.70;99.90;;;;;;5017370;28;20599;-42
2023/06/28 10:32:51;;;;;;;6.03;1.83;;;20.70;99.90;;;;;;5015243;28;20215;-48
2023/06/28 10:35:18;;;;;;;4.33;1.83;;;20.50;99.90;;;;;;5013756;28;20220;-44
2023/06/28 10:37:45;;;;;;;2.67;1.60;;;20.50;99.90;;;;;;5017077;28;20200;-41
2023/06/28 10:40:13;;;;;;;6.83;2.10;;;20.50;99.90;;;;;;5017469;28;20931;-42
2023/06/28 10:42:42;;;;;;;4.03;1.70;;;20.50;99.90;;;;;;5017778;28;20242;-42
2023/06/28 10:45:09;;;;;;;3.63;1.70;;;20.70;99.90;;;;;;5005956;28;20930;-45
2023/06/28 10:47:37;;;;;;;3.13;1.85;;;20.90;99.90;;;;;;5022252;28;20196;-43
2023/06/28 10:50:11;;;;;;;4.78;2.05;;;20.90;99.90;;;;;;5013163;28;20191;-45
2023/06/28 10:52:46;;;;;;;7.85;1.88;;;21.00;99.90;;;;;;5015748;28;20223;-40
2023/06/28 10:55:12;;;;;;;3.40;1.67;;;21.20;99.90;;;;;;5020122;28;20218;-45
2023/06/28 10:57:41;;;;;;;3.80;1.57;;;21.30;99.90;;;;;;5023180;28;20192;-42
2023/06/28 11:00:29;;;;;;;2.63;1.67;;;21.20;99.90;;;;;;4998390;28;20200;-43
2023/06/28 11:03:03;;;;;;;1.88;1.40;;;21.30;99.90;;;;;;5013986;28;20219;-42
2023/06/28 11:05:53;;;;;;;4.97;1.60;;;21.30;99.90;;;;;;5016627;28;20254;-42
2023/06/28 11:08:22;;;;;;;3.33;1.65;;;21.50;99.90;;;;;;5003031;28;22010;-46
2023/06/28 11:10:54;;;;;;;4.10;1.80;;;21.70;99.90;;;;;;5017443;28;20236;-43
2023/06/28 11:13:44;;;;;;;2.78;1.40;;;21.80;99.90;;;;;;5014930;28;20192;-43
2023/06/28 11:16:17;;;;;;;4.65;1.73;;;21.80;99.90;;;;;;4997355;28;20216;-42
2023/06/28 11:18:44;;;;;;;2.97;1.38;;;21.90;99.90;;;;;;5021525;28;20211;-43
2023/06/28 11:21:15;;;;;;;1.75;1.10;;;21.90;99.90;;;;;;5019627;28;20696;-44
2023/06/28 11:23:43;;;;;;;3.53;1.52;;;22.10;99.90;;;;;;5015247;28;20196;-41
2023/06/28 11:26:13;;;;;;;3.03;1.42;;;22.00;99.90;;;;;;5005147;28;20216;-42
2023/06/28 11:28:49;;;;;;;6.40;1.42;;;21.90;99.70;;;;;;5018495;28;20258;-42
2023/06/28 11:31:19;;;;;;;2.90;1.80;;;21.90;99.30;;;;;;4995915;28;20228;-43
2023/06/28 11:33:46;;;;;;;2.13;1.63;;;21.90;99.90;;;;;;5018879;28;20975;-44
2023/06/28 11:36:13;;;;;;;2.45;1.70;;;22.00;99.90;;;;;;5021327;28;20208;-41
2023/06/28 11:38:44;;;;;;;2.97;1.35;;;22.20;99.90;;;;;;5006399;28;20199;-44
2023/06/28 11:41:11;;;;;;;1.13;1.00;;;22.30;99.90;;;;;;5022016;28;20697;-43
2023/06/28 11:43:38;;;;;;;3.40;1.35;;;22.40;99.30;;;;;;5015971;28;20193;-41
2023/06/28 11:46:07;;;;;;;4.22;1.30;;;22.40;98.50;;;;;;5001442;28;20258;-44
2023/06/28 11:48:34;;;;;;;1.77;1.33;;;22.50;98.10;;;;;;5016743;28;20192;-43
2023/06/28 11:51:02;;;;;;;3.42;0.90;;;22.60;98.60;;;;;;5017209;28;20706;-42
2023/06/28 11:53:31;;;;;;;2.25;1.10;;;22.70;98.40;;;;;;5014840;28;20216;-42
2023/06/28 11:55:59;;;;;;;5.55;1.40;;;22.80;97.90;;;;;;5019239;28;20220;-42
2023/06/28 11:58:30;;;;;;;1.27;1.17;;;22.80;97.40;;;;;;5018474;28;20242;-45
2023/06/28 12:00:58;;;;;;;3.00;0.90;;;22.80;97.30;;;;;;5021237;28;20216;-43
2023/06/28 12:03:37;;;;;;;1.45;1.00;;;22.80;96.90;;;;;;5003196;28;20208;-43
2023/06/28 12:06:05;;;;;;;2.88;1.20;;;22.80;96.80;;;;;;5025414;28;20223;-42
2023/06/28 12:08:36;;;;;;;4.25;1.50;;;22.70;96.90;;;;;;5015153;28;20306;-44
2023/06/28 12:11:08;;;;;;;2.85;1.10;;;22.60;97.20;;;;;;5018300;28;20235;-42
2023/06/28 12:13:35;;;;;;;4.00;1.20;;;22.50;96.60;;;;;;5016388;28;20219;-42
2023/06/28 12:16:12;;;;;;;2.42;1.08;;;22.50;96.10;;;;;;5025457;28;20216;-43
2023/06/28 12:19:00;;;;;;;3.05;1.15;;;22.50;94.60;;;;;;5000166;28;20821;-41
2023/06/28 12:21:29;;;;;;;2.33;1.20;;;22.70;94.80;;;;;;5023552;28;20227;-42
2023/06/28 12:24:11;;;;;;;2.00;0.85;;;22.80;95.20;;;;;;5021765;28;20184;-43
2023/06/28 12:26:38;;;;;;;2.08;0.82;;;23.00;94.60;;;;;;5008719;28;20875;-43
2023/06/28 12:29:07;;;;;;;3.20;1.15;;;23.00;94.00;;;;;;5025535;28;20666;-40
2023/06/28 12:31:41;;;;;;;2.42;1.17;;;23.00;94.30;;;;;;5019831;28;20581;-43
2023/06/28 12:34:10;;;;;;;3.75;1.20;;;23.00;94.00;;;;;;4991519;28;20235;-42
2023/06/28 12:36:39;;;;;;;2.15;1.20;;;23.10;94.60;;;;;;5017919;28;20228;-41
2023/06/28 12:39:07;;;;;;;1.90;1.38;;;23.20;94.20;;;;;;5022455;28;20257;-44
2023/06/28 12:41:33;;;;;;;5.53;1.60;;;23.30;94.70;;;;;;5008010;28;20253;-42
2023/06/28 12:44:00;;;;;;;1.77;1.00;;;23.50;94.80;;;;;;5024396;28;20671;-41
2023/06/28 12:46:28;;;;;;;1.38;1.10;;;23.60;94.50;;;;;;5023246;28;20200;-42
2023/06/28 12:48:57;;;;;;;3.50;1.23;;;23.70;94.00;;;;;;4998920;28;21027;-41
2023/06/28 12:51:25;;;;;;;1.77;0.95;;;23.80;92.70;;;;;;5022293;28;20282;-44